sensor_id;sensor_type;location;lat;lon;timestamp;pressure;altitude;pressure_sealevel;temperature;humidity
61710;BME280;73500;51.494;5.386;2024-03-22T00:00:28;102078.19;;;19.01;48.05
61710;BME280;73500;51.494;5.386;2024-03-22T00:02:53;102062.19;;;18.90;48.29
61710;BME280;73500;51.494;5.386;2024-03-22T00:05:20;102008.69;;;18.59;48.10
61710;BME280;73500;51.494;5.386;2024-03-22T00:07:47;102048.47;;;18.85;48.34
61710;BME280;73500;51.494;5.386;2024-03-22T00:10:12;102066.31;;;18.94;48.24
61710;BME280;73500;51.494;5.386;2024-03-22T00:12:38;102066.31;;;18.94;48.20
61710;BME280;73500;51.494;5.386;2024-03-22T00:15:04;102049.38;;;18.84;48.26
61710;BME280;73500;51.494;5.386;2024-03-22T00:17:29;102062.09;;;18.92;48.03
61710;BME280;73500;51.494;5.386;2024-03-22T00:19:56;102040.91;;;18.79;48.17
61710;BME280;73500;51.494;5.386;2024-03-22T00:22:21;102049.47;;;18.82;48.34
61710;BME280;73500;51.494;5.386;2024-03-22T00:24:46;102057.03;;;18.89;48.37
61710;BME280;73500;51.494;5.386;2024-03-22T00:27:12;102061.22;;;18.91;48.25
61710;BME280;73500;51.494;5.386;2024-03-22T00:29:37;102023.75;;;18.72;48.41
61710;BME280;73500;51.494;5.386;2024-03-22T00:32:03;102052.56;;;18.89;48.51
61710;BME280;73500;51.494;5.386;2024-03-22T00:34:29;102050.88;;;18.88;48.27
61710;BME280;73500;51.494;5.386;2024-03-22T00:36:54;102038.63;;;18.87;48.28
61710;BME280;73500;51.494;5.386;2024-03-22T00:39:19;102036.81;;;18.88;48.51
61710;BME280;73500;51.494;5.386;2024-03-22T00:41:44;102015.63;;;18.75;48.19
61710;BME280;73500;51.494;5.386;2024-03-22T00:44:10;102030.81;;;18.85;48.40
61710;BME280;73500;51.494;5.386;2024-03-22T00:46:35;102017.75;;;18.82;48.36
61710;BME280;73500;51.494;5.386;2024-03-22T00:49:01;102010.69;;;18.83;48.27
61710;BME280;73500;51.494;5.386;2024-03-22T00:51:27;102008.25;;;18.80;48.71
61710;BME280;73500;51.494;5.386;2024-03-22T00:53:52;101992.59;;;18.77;48.54
61710;BME280;73500;51.494;5.386;2024-03-22T00:56:18;101982.31;;;18.72;48.55
61710;BME280;73500;51.494;5.386;2024-03-22T00:58:43;101987.78;;;18.83;48.43
61710;BME280;73500;51.494;5.386;2024-03-22T01:01:08;101972.63;;;18.73;48.59
61710;BME280;73500;51.494;5.386;2024-03-22T01:03:34;101977.31;;;18.82;48.84
61710;BME280;73500;51.494;5.386;2024-03-22T01:05:59;101972.13;;;18.80;48.64
61710;BME280;73500;51.494;5.386;2024-03-22T01:08:24;101965.88;;;18.81;48.56
61710;BME280;73500;51.494;5.386;2024-03-22T01:10:50;101970.44;;;18.79;48.63
61710;BME280;73500;51.494;5.386;2024-03-22T01:13:16;101960.78;;;18.78;48.55
61710;BME280;73500;51.494;5.386;2024-03-22T01:15:41;101964.31;;;18.79;48.64
61710;BME280;73500;51.494;5.386;2024-03-22T01:18:07;101961.66;;;18.79;48.78
61710;BME280;73500;51.494;5.386;2024-03-22T01:20:32;101934.06;;;18.70;48.80
61710;BME280;73500;51.494;5.386;2024-03-22T01:22:59;101922.88;;;18.66;48.56
61710;BME280;73500;51.494;5.386;2024-03-22T01:25:24;101948.47;;;18.79;48.57
61710;BME280;73500;51.494;5.386;2024-03-22T01:27:50;101948.47;;;18.79;48.77
61710;BME280;73500;51.494;5.386;2024-03-22T01:30:15;101953.94;;;18.76;48.73
61710;BME280;73500;51.494;5.386;2024-03-22T01:32:40;101936.25;;;18.63;48.81
61710;BME280;73500;51.494;5.386;2024-03-22T01:35:06;101948.75;;;18.74;48.71
61710;BME280;73500;51.494;5.386;2024-03-22T01:37:31;101926.25;;;18.68;48.75
61710;BME280;73500;51.494;5.386;2024-03-22T01:39:57;101922.88;;;18.66;48.89
61710;BME280;73500;51.494;5.386;2024-03-22T01:42:22;101915.97;;;18.64;48.94
61710;BME280;73500;51.494;5.386;2024-03-22T01:44:49;101932.81;;;18.76;48.82
61710;BME280;73500;51.494;5.386;2024-03-22T01:47:15;101929.41;;;18.74;48.86
61710;BME280;73500;51.494;5.386;2024-03-22T01:49:40;101926.13;;;18.70;48.80
61710;BME280;73500;51.494;5.386;2024-03-22T01:52:05;101920.84;;;18.70;48.78
61710;BME280;73500;51.494;5.386;2024-03-22T01:54:31;101922.34;;;18.74;48.83
61710;BME280;73500;51.494;5.386;2024-03-22T01:56:56;101904.28;;;18.68;48.75
61710;BME280;73500;51.494;5.386;2024-03-22T01:59:21;101893.59;;;18.57;48.76
61710;BME280;73500;51.494;5.386;2024-03-22T02:01:47;101900.53;;;18.58;48.73
61710;BME280;73500;51.494;5.386;2024-03-22T02:04:14;101942.72;;;18.72;48.70
61710;BME280;73500;51.494;5.386;2024-03-22T02:06:39;101921.38;;;18.62;48.88
61710;BME280;73500;51.494;5.386;2024-03-22T02:09:05;101925.41;;;18.68;48.75
61710;BME280;73500;51.494;5.386;2024-03-22T02:11:31;101925.41;;;18.68;48.74
61710;BME280;73500;51.494;5.386;2024-03-22T02:13:57;101921.94;;;18.67;48.75
61710;BME280;73500;51.494;5.386;2024-03-22T02:16:22;101907.53;;;18.59;49.15
61710;BME280;73500;51.494;5.386;2024-03-22T02:18:47;101920.53;;;18.62;48.47
61710;BME280;73500;51.494;5.386;2024-03-22T02:21:14;101914.31;;;18.63;48.95
61710;BME280;73500;51.494;5.386;2024-03-22T02:23:40;101909.97;;;18.62;48.70
61710;BME280;73500;51.494;5.386;2024-03-22T02:26:07;101914.94;;;18.66;48.67
61710;BME280;73500;51.494;5.386;2024-03-22T02:28:33;101908.16;;;18.62;48.89
61710;BME280;73500;51.494;5.386;2024-03-22T02:30:59;101907.03;;;18.66;48.71
61710;BME280;73500;51.494;5.386;2024-03-22T02:33:25;101887.66;;;18.53;48.82
61710;BME280;73500;51.494;5.386;2024-03-22T02:35:50;101896.34;;;18.55;48.93
61710;BME280;73500;51.494;5.386;2024-03-22T02:38:16;101908.16;;;18.62;48.86
61710;BME280;73500;51.494;5.386;2024-03-22T02:40:45;101907.13;;;18.65;48.61
61710;BME280;73500;51.494;5.386;2024-03-22T02:43:11;101906.50;;;18.61;48.68
61710;BME280;73500;51.494;5.386;2024-03-22T02:45:37;101906.28;;;18.64;48.75
61710;BME280;73500;51.494;5.386;2024-03-22T02:48:02;101890.28;;;18.53;48.63
61710;BME280;73500;51.494;5.386;2024-03-22T02:50:27;101894.97;;;18.62;48.61
61710;BME280;73500;51.494;5.386;2024-03-22T02:52:53;101886.31;;;18.60;48.56
61710;BME280;73500;51.494;5.386;2024-03-22T02:55:18;101863.16;;;18.51;48.67
61710;BME280;73500;51.494;5.386;2024-03-22T02:57:44;101855.88;;;18.55;48.89
61710;BME280;73500;51.494;5.386;2024-03-22T03:00:09;101846.47;;;18.51;48.72
61710;BME280;73500;51.494;5.386;2024-03-22T03:02:35;101841.84;;;18.54;49.00
61710;BME280;73500;51.494;5.386;2024-03-22T03:05:01;101815.41;;;18.41;48.81
61710;BME280;73500;51.494;5.386;2024-03-22T03:07:26;101833.19;;;18.52;48.63
61710;BME280;73500;51.494;5.386;2024-03-22T03:09:55;101831.59;;;18.49;48.85
61710;BME280;73500;51.494;5.386;2024-03-22T03:12:20;101847.13;;;18.54;48.94
61710;BME280;73500;51.494;5.386;2024-03-22T03:14:45;101834.44;;;18.46;48.81
61710;BME280;73500;51.494;5.386;2024-03-22T03:17:11;101846.91;;;18.57;48.68
61710;BME280;73500;51.494;5.386;2024-03-22T03:19:36;101826.50;;;18.46;48.61
61710;BME280;73500;51.494;5.386;2024-03-22T03:22:02;101844.56;;;18.53;48.75
61710;BME280;73500;51.494;5.386;2024-03-22T03:24:27;101841.72;;;18.56;48.66
61710;BME280;73500;51.494;5.386;2024-03-22T03:26:52;101818.69;;;18.45;48.83
61710;BME280;73500;51.494;5.386;2024-03-22T03:29:18;101832.97;;;18.55;48.80
61710;BME280;73500;51.494;5.386;2024-03-22T03:31:43;101830.22;;;18.57;48.92
61710;BME280;73500;51.494;5.386;2024-03-22T03:34:08;101807.81;;;18.49;48.87
61710;BME280;73500;51.494;5.386;2024-03-22T03:36:33;101801.59;;;18.51;48.71
61710;BME280;73500;51.494;5.386;2024-03-22T03:38:59;101812.28;;;18.49;48.70
61710;BME280;73500;51.494;5.386;2024-03-22T03:41:24;101809.22;;;18.55;49.08
61710;BME280;73500;51.494;5.386;2024-03-22T03:43:49;101790.63;;;18.44;48.75
61710;BME280;73500;51.494;5.386;2024-03-22T03:46:15;101797.25;;;18.49;48.60
61710;BME280;73500;51.494;5.386;2024-03-22T03:48:40;101800.63;;;18.52;48.72
61710;BME280;73500;51.494;5.386;2024-03-22T03:51:05;101792.97;;;18.48;48.71
61710;BME280;73500;51.494;5.386;2024-03-22T03:53:31;101790.94;;;18.52;48.99
61710;BME280;73500;51.494;5.386;2024-03-22T03:55:56;101775.81;;;18.41;48.55
61710;BME280;73500;51.494;5.386;2024-03-22T03:58:21;101792.00;;;18.49;48.58
61710;BME280;73500;51.494;5.386;2024-03-22T04:00:47;101774.22;;;18.39;48.52
61710;BME280;73500;51.494;5.386;2024-03-22T04:03:12;101770.75;;;18.38;48.55
61710;BME280;73500;51.494;5.386;2024-03-22T04:05:37;101795.50;;;18.50;48.94
61710;BME280;73500;51.494;5.386;2024-03-22T04:08:03;101773.41;;;18.38;48.64
61710;BME280;73500;51.494;5.386;2024-03-22T04:10:28;101788.41;;;18.51;48.94
61710;BME280;73500;51.494;5.386;2024-03-22T04:12:53;101791.88;;;18.51;48.47
61710;BME280;73500;51.494;5.386;2024-03-22T04:15:19;101789.44;;;18.48;48.84
61710;BME280;73500;51.494;5.386;2024-03-22T04:17:44;101770.75;;;18.38;48.69
61710;BME280;73500;51.494;5.386;2024-03-22T04:20:10;101789.44;;;18.48;48.63
61710;BME280;73500;51.494;5.386;2024-03-22T04:22:36;101772.25;;;18.42;48.43
61710;BME280;73500;51.494;5.386;2024-03-22T04:25:01;101786.06;;;18.46;48.60
61710;BME280;73500;51.494;5.386;2024-03-22T04:27:27;101782.50;;;18.47;48.73
61710;BME280;73500;51.494;5.386;2024-03-22T04:29:52;101788.72;;;18.46;48.79
61710;BME280;73500;51.494;5.386;2024-03-22T04:32:18;101768.31;;;18.35;48.60
61710;BME280;73500;51.494;5.386;2024-03-22T04:34:43;101787.00;;;18.45;48.89
61710;BME280;73500;51.494;5.386;2024-03-22T04:37:09;101774.22;;;18.39;48.72
61710;BME280;73500;51.494;5.386;2024-03-22T04:39:35;101765.69;;;18.35;48.62
61710;BME280;73500;51.494;5.386;2024-03-22T04:42:01;101763.78;;;18.37;48.72
61710;BME280;73500;51.494;5.386;2024-03-22T04:44:27;101771.50;;;18.40;48.72
61710;BME280;73500;51.494;5.386;2024-03-22T04:46:52;101781.84;;;18.43;48.75
61710;BME280;73500;51.494;5.386;2024-03-22T04:49:17;101770.97;;;18.35;48.56
61710;BME280;73500;51.494;5.386;2024-03-22T04:51:42;101762.41;;;18.31;48.68
61710;BME280;73500;51.494;5.386;2024-03-22T04:54:08;101768.31;;;18.35;48.81
61710;BME280;73500;51.494;5.386;2024-03-22T04:56:33;101768.31;;;18.35;48.68
61710;BME280;73500;51.494;5.386;2024-03-22T04:58:58;101751.75;;;18.33;48.63
61710;BME280;73500;51.494;5.386;2024-03-22T05:01:24;101768.75;;;18.42;48.51
61710;BME280;73500;51.494;5.386;2024-03-22T05:03:49;101755.75;;;18.39;48.59
61710;BME280;73500;51.494;5.386;2024-03-22T05:06:15;101742.13;;;18.32;48.58
61710;BME280;73500;51.494;5.386;2024-03-22T05:08:40;101744.78;;;18.32;48.34
61710;BME280;73500;51.494;5.386;2024-03-22T05:11:07;101737.94;;;18.29;48.76
61710;BME280;73500;51.494;5.386;2024-03-22T05:13:32;101737.06;;;18.29;48.78
61710;BME280;73500;51.494;5.386;2024-03-22T05:15:58;101752.28;;;18.38;48.64
61710;BME280;73500;51.494;5.386;2024-03-22T05:18:23;101761.03;;;18.39;48.54
61710;BME280;73500;51.494;5.386;2024-03-22T05:20:48;101734.44;;;18.29;48.38
61710;BME280;73500;51.494;5.386;2024-03-22T05:23:14;101748.19;;;18.34;48.48
61710;BME280;73500;51.494;5.386;2024-03-22T05:25:41;101751.44;;;18.38;48.75
61710;BME280;73500;51.494;5.386;2024-03-22T05:28:07;101754.81;;;18.40;48.71
61710;BME280;73500;51.494;5.386;2024-03-22T05:30:32;101759.25;;;18.39;48.82
61710;BME280;73500;51.494;5.386;2024-03-22T05:32:58;101738.16;;;18.26;48.46
61710;BME280;73500;51.494;5.386;2024-03-22T05:35:23;101753.00;;;18.40;48.35
61710;BME280;73500;51.494;5.386;2024-03-22T05:37:48;101731.16;;;18.25;48.50
61710;BME280;73500;51.494;5.386;2024-03-22T05:40:15;101738.97;;;18.27;48.54
61710;BME280;73500;51.494;5.386;2024-03-22T05:42:40;101732.00;;;18.26;48.63
61710;BME280;73500;51.494;5.386;2024-03-22T05:45:06;101741.94;;;18.35;48.47
61710;BME280;73500;51.494;5.386;2024-03-22T05:47:32;101740.13;;;18.36;48.33
61710;BME280;73500;51.494;5.386;2024-03-22T05:49:58;101722.50;;;18.23;48.63
61710;BME280;73500;51.494;5.386;2024-03-22T05:52:23;101750.59;;;18.37;48.12
61710;BME280;73500;51.494;5.386;2024-03-22T05:54:49;101722.31;;;18.26;48.47
61710;BME280;73500;51.494;5.386;2024-03-22T05:57:14;101741.00;;;18.36;48.28
61710;BME280;73500;51.494;5.386;2024-03-22T05:59:39;101738.34;;;18.36;48.45
61710;BME280;73500;51.494;5.386;2024-03-22T06:02:05;101735.00;;;18.34;48.59
61710;BME280;73500;51.494;5.386;2024-03-22T06:04:30;101718.06;;;18.24;48.32
61710;BME280;73500;51.494;5.386;2024-03-22T06:06:56;101727.28;;;18.31;48.28
61710;BME280;73500;51.494;5.386;2024-03-22T06:09:24;101736.75;;;18.34;48.40
61710;BME280;73500;51.494;5.386;2024-03-22T06:11:59;101735.19;;;18.31;48.37
61710;BME280;73500;51.494;5.386;2024-03-22T06:14:24;101751.88;;;18.31;48.38
61710;BME280;73500;51.494;5.386;2024-03-22T06:16:49;101719.22;;;18.20;48.56
61710;BME280;73500;51.494;5.386;2024-03-22T06:19:15;101737.06;;;18.29;48.33
61710;BME280;73500;51.494;5.386;2024-03-22T06:21:40;101719.97;;;18.22;48.24
61710;BME280;73500;51.494;5.386;2024-03-22T06:24:05;101740.38;;;18.33;48.31
61710;BME280;73500;51.494;5.386;2024-03-22T06:26:31;101719.13;;;18.21;48.20
61710;BME280;73500;51.494;5.386;2024-03-22T06:28:56;101735.19;;;18.31;48.09
61710;BME280;73500;51.494;5.386;2024-03-22T06:31:21;101726.50;;;18.29;48.33
61710;BME280;73500;51.494;5.386;2024-03-22T06:33:46;101716.28;;;18.24;48.50
61710;BME280;73500;51.494;5.386;2024-03-22T06:36:12;101729.91;;;18.31;48.23
61710;BME280;73500;51.494;5.386;2024-03-22T06:38:37;101721.44;;;18.26;48.30
61710;BME280;73500;51.494;5.386;2024-03-22T06:41:03;101729.06;;;18.30;48.30
61710;BME280;73500;51.494;5.386;2024-03-22T06:43:29;101721.25;;;18.29;48.55
61710;BME280;73500;51.494;5.386;2024-03-22T06:45:54;101737.19;;;18.40;48.76
61710;BME280;73500;51.494;5.386;2024-03-22T06:48:19;101720.09;;;18.33;48.64
61710;BME280;73500;51.494;5.386;2024-03-22T06:50:45;101721.44;;;18.39;48.62
61710;BME280;73500;51.494;5.386;2024-03-22T06:53:11;101723.16;;;18.40;48.61
61710;BME280;73500;51.494;5.386;2024-03-22T06:55:36;101714.59;;;18.36;48.57
61710;BME280;73500;51.494;5.386;2024-03-22T06:58:02;101727.06;;;18.47;48.58
61710;BME280;73500;51.494;5.386;2024-03-22T07:00:27;101727.91;;;18.47;48.63
61710;BME280;73500;51.494;5.386;2024-03-22T07:02:53;101733.81;;;18.51;48.50
61710;BME280;73500;51.494;5.386;2024-03-22T07:05:18;101727.59;;;18.52;48.65
61710;BME280;73500;51.494;5.386;2024-03-22T07:07:43;101730.84;;;18.56;48.62
61710;BME280;73500;51.494;5.386;2024-03-22T07:10:09;101731.59;;;18.58;48.78
61710;BME280;73500;51.494;5.386;2024-03-22T07:12:34;101734.13;;;18.59;48.64
61710;BME280;73500;51.494;5.386;2024-03-22T07:15:01;101735.00;;;18.60;48.63
61710;BME280;73500;51.494;5.386;2024-03-22T07:17:27;101712.19;;;18.46;48.99
61710;BME280;73500;51.494;5.386;2024-03-22T07:19:52;101712.59;;;18.53;48.83
61710;BME280;73500;51.494;5.386;2024-03-22T07:22:19;101711.03;;;18.50;48.99
61710;BME280;73500;51.494;5.386;2024-03-22T07:24:45;101731.38;;;18.61;49.10
61710;BME280;73500;51.494;5.386;2024-03-22T07:27:10;101732.88;;;18.65;48.85
61710;BME280;73500;51.494;5.386;2024-03-22T07:29:36;101721.47;;;18.64;49.18
61710;BME280;73500;51.494;5.386;2024-03-22T07:32:01;101707.09;;;18.56;49.11
61710;BME280;73500;51.494;5.386;2024-03-22T07:34:27;101703.63;;;18.55;48.98
61710;BME280;73500;51.494;5.386;2024-03-22T07:36:52;101716.41;;;18.61;49.22
61710;BME280;73500;51.494;5.386;2024-03-22T07:39:18;101717.13;;;18.63;49.47
61710;BME280;73500;51.494;5.386;2024-03-22T07:41:43;101731.47;;;18.72;49.24
61710;BME280;73500;51.494;5.386;2024-03-22T07:44:09;101724.53;;;18.71;49.29
61710;BME280;73500;51.494;5.386;2024-03-22T07:46:34;101704.13;;;18.60;49.43
61710;BME280;73500;51.494;5.386;2024-03-22T07:48:59;101694.53;;;18.59;49.46
61710;BME280;73500;51.494;5.386;2024-03-22T07:51:26;101720.69;;;18.75;49.51
61710;BME280;73500;51.494;5.386;2024-03-22T07:53:51;101713.63;;;18.76;49.51
61710;BME280;73500;51.494;5.386;2024-03-22T07:56:17;101722.28;;;18.78;49.64
61710;BME280;73500;51.494;5.386;2024-03-22T07:58:42;101717.22;;;18.75;49.57
61710;BME280;73500;51.494;5.386;2024-03-22T08:01:08;101718.91;;;18.76;49.72
61710;BME280;73500;51.494;5.386;2024-03-22T08:03:33;101709.72;;;18.68;49.96
61710;BME280;73500;51.494;5.386;2024-03-22T08:05:58;101707.72;;;18.72;50.29
61710;BME280;73500;51.494;5.386;2024-03-22T08:08:24;101714.03;;;18.82;50.75
61710;BME280;73500;51.494;5.386;2024-03-22T08:10:49;101723.25;;;18.90;51.23
61710;BME280;73500;51.494;5.386;2024-03-22T08:13:14;101708.16;;;18.79;51.38
61710;BME280;73500;51.494;5.386;2024-03-22T08:15:40;101716.41;;;18.87;51.76
61710;BME280;73500;51.494;5.386;2024-03-22T08:18:06;101703.81;;;18.78;51.59
61710;BME280;73500;51.494;5.386;2024-03-22T08:20:32;101719.75;;;18.89;51.31
61710;BME280;73500;51.494;5.386;2024-03-22T08:22:59;101701.06;;;18.79;51.52
61710;BME280;73500;51.494;5.386;2024-03-22T08:25:24;101722.50;;;18.88;51.33
61710;BME280;73500;51.494;5.386;2024-03-22T08:27:50;101703.69;;;18.79;51.18
61710;BME280;73500;51.494;5.386;2024-03-22T08:30:17;101714.59;;;18.88;51.24
61710;BME280;73500;51.494;5.386;2024-03-22T08:32:43;101716.50;;;18.85;51.27
61710;BME280;73500;51.494;5.386;2024-03-22T08:35:08;101713.66;;;18.89;51.10
61710;BME280;73500;51.494;5.386;2024-03-22T08:37:33;101689.97;;;18.74;51.24
61710;BME280;73500;51.494;5.386;2024-03-22T08:39:59;101702.53;;;18.83;50.83
61710;BME280;73500;51.494;5.386;2024-03-22T08:42:24;101711.00;;;18.89;50.91
61710;BME280;73500;51.494;5.386;2024-03-22T08:44:50;101697.69;;;18.77;51.09
61710;BME280;73500;51.494;5.386;2024-03-22T08:47:15;101693.13;;;18.79;50.76
61710;BME280;73500;51.494;5.386;2024-03-22T08:49:40;101709.19;;;18.89;50.83
61710;BME280;73500;51.494;5.386;2024-03-22T08:52:08;101707.28;;;18.91;50.55
61710;BME280;73500;51.494;5.386;2024-03-22T08:54:34;101695.78;;;18.79;50.45
61710;BME280;73500;51.494;5.386;2024-03-22T08:56:59;101692.09;;;18.82;50.61
61710;BME280;73500;51.494;5.386;2024-03-22T08:59:24;101683.50;;;18.78;50.87
61710;BME280;73500;51.494;5.386;2024-03-22T09:01:50;101696.50;;;18.81;50.72
61710;BME280;73500;51.494;5.386;2024-03-22T09:04:15;101711.84;;;18.89;50.19
61710;BME280;73500;51.494;5.386;2024-03-22T09:06:41;101707.75;;;18.85;47.50
61710;BME280;73500;51.494;5.386;2024-03-22T09:09:06;101684.69;;;18.74;47.29
61710;BME280;73500;51.494;5.386;2024-03-22T09:11:33;101703.31;;;18.85;48.92
61710;BME280;73500;51.494;5.386;2024-03-22T09:13:58;101702.47;;;18.85;48.90
61710;BME280;73500;51.494;5.386;2024-03-22T09:16:23;101698.19;;;18.82;49.40
61710;BME280;73500;51.494;5.386;2024-03-22T09:18:49;101705.94;;;18.85;49.47
61710;BME280;73500;51.494;5.386;2024-03-22T09:21:14;101677.72;;;18.73;49.54
61710;BME280;73500;51.494;5.386;2024-03-22T09:23:39;101690.50;;;18.79;49.61
61710;BME280;73500;51.494;5.386;2024-03-22T09:26:05;101680.88;;;18.78;49.71
61710;BME280;73500;51.494;5.386;2024-03-22T09:28:30;101677.00;;;18.84;49.69
61710;BME280;73500;51.494;5.386;2024-03-22T09:30:56;101678.56;;;18.87;49.39
61710;BME280;73500;51.494;5.386;2024-03-22T09:33:21;101667.16;;;18.86;49.63
61710;BME280;73500;51.494;5.386;2024-03-22T09:35:47;101661.88;;;18.86;49.92
61710;BME280;73500;51.494;5.386;2024-03-22T09:38:12;101670.84;;;18.96;49.70
61710;BME280;73500;51.494;5.386;2024-03-22T09:40:38;101676.63;;;19.01;49.59
61710;BME280;73500;51.494;5.386;2024-03-22T09:43:06;101656.56;;;18.99;49.33
61710;BME280;73500;51.494;5.386;2024-03-22T09:45:32;101671.25;;;19.03;49.41
61710;BME280;73500;51.494;5.386;2024-03-22T09:47:58;101672.25;;;19.13;49.53
61710;BME280;73500;51.494;5.386;2024-03-22T09:50:23;101675.00;;;19.12;49.49
61710;BME280;73500;51.494;5.386;2024-03-22T09:52:51;101667.72;;;19.15;49.50
61710;BME280;73500;51.494;5.386;2024-03-22T09:55:23;101669.38;;;19.16;49.47
61710;BME280;73500;51.494;5.386;2024-03-22T09:57:49;101667.72;;;19.15;49.33
61710;BME280;73500;51.494;5.386;2024-03-22T10:00:18;101672.91;;;19.17;49.03
61710;BME280;73500;51.494;5.386;2024-03-22T10:02:46;101668.00;;;19.24;48.85
61710;BME280;73500;51.494;5.386;2024-03-22T10:05:11;101652.91;;;19.13;48.87
61710;BME280;73500;51.494;5.386;2024-03-22T10:07:37;101643.06;;;19.15;48.84
61710;BME280;73500;51.494;5.386;2024-03-22T10:10:03;101668.28;;;19.32;48.48
61710;BME280;73500;51.494;5.386;2024-03-22T10:12:28;101664.03;;;19.29;48.87
61710;BME280;73500;51.494;5.386;2024-03-22T10:14:54;101640.81;;;19.21;48.73
61710;BME280;73500;51.494;5.386;2024-03-22T10:17:19;101642.41;;;19.24;48.93
61710;BME280;73500;51.494;5.386;2024-03-22T10:19:45;101665.03;;;19.28;48.90
61710;BME280;73500;51.494;5.386;2024-03-22T10:22:10;101658.44;;;19.34;48.86
61710;BME280;73500;51.494;5.386;2024-03-22T10:24:36;101644.00;;;19.27;48.90
61710;BME280;73500;51.494;5.386;2024-03-22T10:27:01;101638.06;;;19.23;49.01
61710;BME280;73500;51.494;5.386;2024-03-22T10:29:26;101647.34;;;19.29;48.88
61710;BME280;73500;51.494;5.386;2024-03-22T10:31:53;101655.06;;;19.32;48.68
61710;BME280;73500;51.494;5.386;2024-03-22T10:34:21;101651.69;;;19.30;48.87
61710;BME280;73500;51.494;5.386;2024-03-22T10:36:46;101638.19;;;19.21;48.73
61710;BME280;73500;51.494;5.386;2024-03-22T10:39:15;101641.69;;;19.22;49.01
61710;BME280;73500;51.494;5.386;2024-03-22T10:41:42;101632.28;;;19.18;48.90
61710;BME280;73500;51.494;5.386;2024-03-22T10:44:07;101653.47;;;19.29;49.01
61710;BME280;73500;51.494;5.386;2024-03-22T10:46:34;101651.81;;;19.28;48.76
61710;BME280;73500;51.494;5.386;2024-03-22T10:49:02;101639.50;;;19.16;48.68
61710;BME280;73500;51.494;5.386;2024-03-22T10:51:29;101639.59;;;19.14;48.77
61710;BME280;73500;51.494;5.386;2024-03-22T10:53:56;101638.66;;;19.15;48.61
61710;BME280;73500;51.494;5.386;2024-03-22T10:56:23;101637.19;;;19.11;48.71
61710;BME280;73500;51.494;5.386;2024-03-22T10:58:50;101637.19;;;19.11;48.79
61710;BME280;73500;51.494;5.386;2024-03-22T11:01:24;101638.75;;;19.14;48.70
61710;BME280;73500;51.494;5.386;2024-03-22T11:03:50;101649.50;;;19.24;48.66
61710;BME280;73500;51.494;5.386;2024-03-22T11:06:19;101647.91;;;19.21;48.64
61710;BME280;73500;51.494;5.386;2024-03-22T11:08:49;101644.66;;;19.17;48.75
61710;BME280;73500;51.494;5.386;2024-03-22T11:11:18;101637.47;;;19.19;48.62
61710;BME280;73500;51.494;5.386;2024-03-22T11:13:47;101649.72;;;19.20;48.74
61710;BME280;73500;51.494;5.386;2024-03-22T11:16:13;101632.50;;;19.15;48.90
61710;BME280;73500;51.494;5.386;2024-03-22T11:18:39;101638.13;;;19.10;48.73
61710;BME280;73500;51.494;5.386;2024-03-22T11:21:04;101640.66;;;19.12;48.58
61710;BME280;73500;51.494;5.386;2024-03-22T11:23:32;101632.72;;;19.12;48.78
61710;BME280;73500;51.494;5.386;2024-03-22T11:25:58;101643.56;;;19.20;48.65
61710;BME280;73500;51.494;5.386;2024-03-22T11:28:24;101641.19;;;19.17;48.84
61710;BME280;73500;51.494;5.386;2024-03-22T11:30:49;101643.34;;;19.23;48.66
61710;BME280;73500;51.494;5.386;2024-03-22T11:33:15;101630.63;;;19.17;48.97
61710;BME280;73500;51.494;5.386;2024-03-22T11:35:40;101644.44;;;19.20;48.55
61710;BME280;73500;51.494;5.386;2024-03-22T11:38:06;101622.03;;;19.13;49.22
61710;BME280;73500;51.494;5.386;2024-03-22T11:40:31;101621.31;;;19.11;49.02
61710;BME280;73500;51.494;5.386;2024-03-22T11:42:59;101631.13;;;19.22;48.86
61710;BME280;73500;51.494;5.386;2024-03-22T11:45:26;101638.06;;;19.23;49.06
61710;BME280;73500;51.494;5.386;2024-03-22T11:47:52;101630.25;;;19.21;48.92
61710;BME280;73500;51.494;5.386;2024-03-22T11:50:18;101614.66;;;19.18;48.88
61710;BME280;73500;51.494;5.386;2024-03-22T11:52:44;101602.38;;;19.17;48.91
61710;BME280;73500;51.494;5.386;2024-03-22T11:55:12;101595.63;;;19.13;48.94
61710;BME280;73500;51.494;5.386;2024-03-22T11:57:38;101611.41;;;19.26;48.92
61710;BME280;73500;51.494;5.386;2024-03-22T12:00:04;101603.81;;;19.21;49.07
61710;BME280;73500;51.494;5.386;2024-03-22T12:02:35;101607.00;;;19.27;49.04
61710;BME280;73500;51.494;5.386;2024-03-22T12:05:01;101590.88;;;19.18;48.95
61710;BME280;73500;51.494;5.386;2024-03-22T12:07:26;101606.66;;;19.31;48.87
61710;BME280;73500;51.494;5.386;2024-03-22T12:09:51;101571.16;;;19.23;48.87
61710;BME280;73500;51.494;5.386;2024-03-22T12:12:17;101591.53;;;19.33;48.93
61710;BME280;73500;51.494;5.386;2024-03-22T12:14:42;101566.00;;;19.21;48.95
61710;BME280;73500;51.494;5.386;2024-03-22T12:17:08;101565.66;;;19.26;48.90
61710;BME280;73500;51.494;5.386;2024-03-22T12:19:34;101569.25;;;19.25;48.96
61710;BME280;73500;51.494;5.386;2024-03-22T12:22:00;101573.97;;;19.32;49.01
61710;BME280;73500;51.494;5.386;2024-03-22T12:24:26;101552.66;;;19.23;48.73
61710;BME280;73500;51.494;5.386;2024-03-22T12:26:52;101581.78;;;19.34;48.81
61710;BME280;73500;51.494;5.386;2024-03-22T12:29:18;101546.66;;;19.20;49.06
61710;BME280;73500;51.494;5.386;2024-03-22T12:31:44;101543.53;;;19.15;49.32
61710;BME280;73500;51.494;5.386;2024-03-22T12:34:10;101563.13;;;19.24;49.15
61710;BME280;73500;51.494;5.386;2024-03-22T12:36:35;101544.13;;;19.19;49.20
61710;BME280;73500;51.494;5.386;2024-03-22T12:39:00;101549.91;;;19.24;49.07
61710;BME280;73500;51.494;5.386;2024-03-22T12:41:27;101541.16;;;19.24;49.07